Yorktown Express — WDD6127 — position and weather

sailwx.info

Track history (hours):
 
Tides and Currents Weather Stations Pressure Air Temp Water Temp Dewpoint Dewpoint Depression Visibility Wind Speed Wind Dir Waves Ship Positions

Yorktown Express

Owner: Marine Transport Management, Inc., Jacksonville, FL. More information available from US FCC via Universal Licensing System and Coast Guard Vessel Documentation Center.

Last reported at 2017-Jun-26 06:00 UTC. Time now 2017-Jun-26 11:56 UTC.
Position N 38°18' W 049°06'.

Type: Ship. MMSI: 367168650.

Wind from 230 at 18 knots

Barometer 1020.1 mb
Air temperature 24.0 ° C
Visibility: greater than 5.4 NM
Dewpoint 22.5 ° C
Water temperature 25.0 ° C

Date/timePositionNaut miles runAvg speedWind from/ knotsBaromVisibWave heightAir tempDewpointWater temp
2017-Jun-26 06:00N 38°18' W 049°06'11418.9 230 / 181020.1 5.4 24.022.525.0
2017-Jun-26 00:00N 38°54' W 046°48'11519.1 250 / 171021.810.8 22.018.921.0
2017-Jun-25 18:00N 39°36' W 044°30'11619.4 230 / 151022.110.8 23.021.523.0
2017-Jun-25 12:00N 40°12' W 042°06'34219.0 250 / 141021.510.8 21.021.021.0
2017-Jun-24 18:00N 42°12' W 035°00'34118.9 230 / 151023.410.8 20.018.421.0
2017-Jun-24 00:00N 44°12' W 027°42'11318.9 250 / 151026.210.8 19.015.719.0
2017-Jun-23 18:00N 45°00' W 025°18'12019.9 220 / 121024.410.8 20.016.719.0
2017-Jun-23 12:00N 45°36' W 022°36'21017.5 230 / 221022.4 1.1 19.015.717.0
2017-Jun-23 00:00N 46°54' W 017°54'12921.5 230 / 201021.010.8 17.011.518.0
2017-Jun-22 18:00N 47°36' W 014°54'22919.1 200 / 71019.710.8 19.013.819.0
2017-Jun-22 06:00N 48°54' W 009°30'9317.1 300 / 211015.7 15.614.919.0
2017-Jun-22 00:34N 49°32' W 007°20'917.7
2017-Jun-22 00:05N 49°34' W 007°08'117.8
2017-Jun-22 00:00N 49°35' W 007°06'918.2
2017-Jun-21 23:30N 49°38' W 006°52'918.5
2017-Jun-21 23:01N 49°41' W 006°39'918.5
2017-Jun-21 22:31N 49°43' W 006°25'1019.1
2017-Jun-21 22:00N 49°44' W 006°10'1019.2
2017-Jun-21 21:31N 49°45' W 005°56'1019.4
2017-Jun-21 21:00N 49°46' W 005°40'1019.4
2017-Jun-21 20:30N 49°47' W 005°26'1019.3
2017-Jun-21 20:00N 49°48' W 005°11'1019.2
2017-Jun-21 19:31N 49°49' W 004°56'1019.0
2017-Jun-21 19:01N 49°51' W 004°41'918.9
2017-Jun-21 18:31N 49°52' W 004°27'918.5
2017-Jun-21 18:01N 49°52' W 004°12'918.1
2017-Jun-21 17:31N 49°53' W 003°59'917.8
2017-Jun-21 17:01N 49°54' W 003°45'917.5
2017-Jun-21 16:30N 49°56' W 003°31'917.4
2017-Jun-21 16:01N 49°57' W 003°18'917.6
2017-Jun-21 15:31N 49°58' W 003°04'917.6
2017-Jun-21 15:01N 49°60' W 002°51'917.9
2017-Jun-21 14:30N 50°02' W 002°38'1918.8
2017-Jun-21 13:29N 50°10' W 002°10'1020.1
2017-Jun-21 12:58N 50°13' W 001°55'1420.8
2017-Jun-21 12:16N 50°18' W 001°33'521.0
2017-Jun-21 12:01N 50°20' W 001°25'1020.9
2017-Jun-21 11:31N 50°27' W 001°13'1121.1
2017-Jun-21 11:01N 50°33' W 000°60'714.7
2017-Jun-21 10:30N 50°40' W 000°56'713.9
2017-Jun-21 10:00N 50°44' W 001°05'714.8
2017-Jun-21 09:30N 50°46' W 001°16'4 8.0
2017-Jun-21 09:00N 50°50' W 001°19'3 6.5
2017-Jun-21 08:30N 50°52' W 001°23'3 6.3
2017-Jun-21 08:00N 50°54' W 001°27'1 1.7
2017-Jun-21 07:29N 50°55' W 001°28'0 0.0
2017-Jun-21 06:56N 50°55' W 001°28'0 0.0
2017-Jun-21 06:26N 50°55' W 001°28'0 0.0
2017-Jun-21 05:59N 50°55' W 001°28'0 0.0
2017-Jun-21 05:29N 50°55' W 001°28'0 0.0
2017-Jun-21 04:56N 50°55' W 001°28'0 0.0
2017-Jun-21 04:30N 50°55' W 001°28'0 0.0
2017-Jun-21 03:53N 50°55' W 001°28'0 0.0
2017-Jun-21 03:26N 50°55' W 001°28'0 0.0
2017-Jun-21 01:50N 50°55' W 001°28'0 0.0
2017-Jun-21 01:30N 50°55' W 001°28'0 0.0
2017-Jun-21 00:53N 50°55' W 001°28'0 0.0
2017-Jun-21 00:20N 50°55' W 001°28'0 0.0
2017-Jun-20 23:53N 50°55' W 001°28'0 0.0
2017-Jun-20 23:26N 50°55' W 001°28'0 0.2
2017-Jun-20 22:59N 50°55' W 001°28'1 2.1
2017-Jun-20 22:30N 50°54' W 001°26'3 6.2
2017-Jun-20 22:00N 50°52' W 001°23'510.0
2017-Jun-20 21:30N 50°48' W 001°17'5 9.6
2017-Jun-20 21:01N 50°46' W 001°11'815.1
2017-Jun-20 20:31N 50°43' W 000°60'4 8.7
2017-Jun-20 20:00N 50°39' W 000°59'4 8.3
2017-Jun-20 19:31N 50°35' W 001°03'1 1.0
2017-Jun-20 18:49N 50°35' W 001°03'0 0.3
2017-Jun-20 18:28N 50°34' W 001°03'0 0.1
2017-Jun-20 17:58N 50°34' W 001°03'0 0.0
2017-Jun-20 17:28N 50°34' W 001°03'0 0.0
2017-Jun-20 16:58N 50°34' W 001°03'0 0.0
2017-Jun-20 16:28N 50°34' W 001°03'0 0.0
2017-Jun-20 15:58N 50°34' W 001°03'0 0.0
2017-Jun-20 15:28N 50°34' W 001°03'0 0.1
2017-Jun-20 15:00N 50°34' W 001°03'4 4.2
2017-Jun-20 14:00N 50°34' W 000°56'4 8.9
2017-Jun-20 13:30N 50°34' W 000°49'714.3
2017-Jun-20 13:00N 50°34' W 000°38'918.7
2017-Jun-20 12:30N 50°33' W 000°23'714.7
2017-Jun-20 12:00N 50°32' W 000°12'1019.6
2017-Jun-20 11:31N 50°32' E 000°03'1019.8
2017-Jun-20 11:01N 50°34' E 000°19'1019.6
2017-Jun-20 10:31N 50°37' E 000°33'919.0
2017-Jun-20 10:01N 50°41' E 000°47'918.4
2017-Jun-20 09:31N 50°46' E 000°59'917.7
2017-Jun-20 09:00N 50°51' E 001°10'817.0
2017-Jun-20 08:30N 50°57' E 001°21'816.5
2017-Jun-20 08:00N 51°03' E 001°30'816.6
2017-Jun-20 07:31N 51°09' E 001°39'917.1
2017-Jun-20 07:01N 51°15' E 001°48'918.0
2017-Jun-20 06:31N 51°23' E 001°56'714.8
2017-Jun-20 06:00N 51°23' E 002°08'917.5
2017-Jun-20 05:31N 51°21' E 002°21'918.9
2017-Jun-20 05:00N 51°23' E 002°36'713.8
2017-Jun-20 04:30N 51°24' E 002°47'917.3
2017-Jun-20 04:01N 51°25' E 003°01'1019.4
2017-Jun-20 03:31N 51°25' E 003°16'918.2
2017-Jun-20 03:01N 51°25' E 003°31'611.9
2017-Jun-20 02:30N 51°26' E 003°40'714.2
2017-Jun-20 02:01N 51°21' E 003°48'714.5
2017-Jun-20 01:31N 51°25' E 003°58'5 9.9
2017-Jun-20 01:01N 51°22' E 004°04'611.2
2017-Jun-20 00:31N 51°22' E 004°13'3 5.2
2017-Jun-20 00:01N 51°20' E 004°17'0 0.0
2017-Jun-19 23:30N 51°20' E 004°17'0 0.0
2017-Jun-19 23:00N 51°20' E 004°17'0 0.0
2017-Jun-19 22:31N 51°20' E 004°17'0 0.0
2017-Jun-19 22:01N 51°20' E 004°17'0 0.0
2017-Jun-19 21:31N 51°20' E 004°17'0 0.0
2017-Jun-19 21:00N 51°20' E 004°17'0 0.0
2017-Jun-19 20:29N 51°20' E 004°17'0 0.0
2017-Jun-19 20:00N 51°20' E 004°17'0 0.0
2017-Jun-19 19:30N 51°20' E 004°17'0 0.0
2017-Jun-19 19:01N 51°20' E 004°17'0 0.0
2017-Jun-19 18:30N 51°20' E 004°17'0 0.0
2017-Jun-19 18:01N 51°20' E 004°17'0 0.0
2017-Jun-19 17:30N 51°20' E 004°17'0 0.0
2017-Jun-19 17:00N 51°20' E 004°17'0 0.0
2017-Jun-19 16:29N 51°20' E 004°17'0 0.0
2017-Jun-19 16:01N 51°20' E 004°17'0 0.0
2017-Jun-19 15:29N 51°20' E 004°17'0 0.0
2017-Jun-19 15:01N 51°20' E 004°17'0 0.0
2017-Jun-19 14:31N 51°20' E 004°17'0 0.0
2017-Jun-19 13:30N 51°20' E 004°17'0 0.0
2017-Jun-19 13:00N 51°20' E 004°17'0 0.0
2017-Jun-19 12:31N 51°20' E 004°17'0 0.0
2017-Jun-19 12:00N 51°20' E 004°17'0 0.0
2017-Jun-19 11:31N 51°20' E 004°17'0 0.0
2017-Jun-19 11:01N 51°20' E 004°17'0 0.0
2017-Jun-19 10:31N 51°20' E 004°17'0 0.0
2017-Jun-19 10:01N 51°20' E 004°17'0 0.0
2017-Jun-19 09:30N 51°20' E 004°17'2 4.7
2017-Jun-19 09:00N 51°21' E 004°14'3 6.9
2017-Jun-19 08:31N 51°22' E 004°08'612.8
2017-Jun-19 08:00N 51°26' E 004°00'714.2
2017-Jun-19 07:30N 51°21' E 003°52'714.0
2017-Jun-19 07:00N 51°24' E 003°43'611.1
2017-Jun-19 06:30N 51°26' E 003°34'917.3
2017-Jun-19 06:00N 51°24' E 003°20'1019.8
2017-Jun-19 05:30N 51°24' E 003°04'612.7
2017-Jun-19 05:00N 51°31' E 003°05'1018.9
2017-Jun-19 04:30N 51°39' E 003°12'612.2
2017-Jun-19 03:59N 51°45' E 003°14'4 9.1
2017-Jun-19 03:30N 51°49' E 003°16'5 9.7
2017-Jun-19 03:00N 51°54' E 003°18'510.2
2017-Jun-19 02:30N 51°59' E 003°20'611.7
2017-Jun-19 02:00N 52°05' E 003°21'714.7
2017-Jun-19 01:30N 52°12' E 003°24'715.0
2017-Jun-19 01:00N 52°20' E 003°25'714.6
2017-Jun-19 00:30N 52°27' E 003°28'714.3
2017-Jun-19 00:00N 52°34' E 003°30'713.5
2017-Jun-18 23:30N 52°40' E 003°34'713.9
2017-Jun-18 23:00N 52°45' E 003°41'713.8
2017-Jun-18 22:30N 52°51' E 003°49'713.7
2017-Jun-18 22:00N 52°56' E 003°56'713.8
2017-Jun-18 21:30N 53°00' E 004°05'714.3
2017-Jun-18 21:00N 53°05' E 004°14'714.8
2017-Jun-18 20:30N 53°09' E 004°24'714.9
2017-Jun-18 20:00N 53°16' E 004°29'815.7
2017-Jun-18 19:31N 53°23' E 004°34'918.5
2017-Jun-18 19:00N 53°29' E 004°45'1019.9
2017-Jun-18 18:30N 53°33' E 005°01'1019.8
2017-Jun-18 18:00N 53°36' E 005°17'1019.4
2017-Jun-18 17:30N 53°39' E 005°32'1019.2
2017-Jun-18 17:00N 53°42' E 005°48'1019.0
2017-Jun-18 16:30N 53°45' E 006°03'1019.2
2017-Jun-18 16:00N 53°49' E 006°18'1518.7
2017-Jun-18 15:13N 53°53' E 006°42'3117.6
2017-Jun-18 13:27N 53°60' E 007°33'716.3
2017-Jun-18 13:00N 53°56' E 007°44'713.0
2017-Jun-18 12:30N 53°52' E 007°53'612.7
2017-Jun-18 12:00N 53°50' E 008°03'714.1
2017-Jun-18 11:30N 53°46' E 008°12'815.4
2017-Jun-18 11:00N 53°41' E 008°22'713.9
2017-Jun-18 10:30N 53°36' E 008°31'1 2.3
2017-Jun-18 10:00N 53°35' E 008°32'0 0.0
2017-Jun-18 09:30N 53°35' E 008°32'0 0.0
2017-Jun-18 08:59N 53°35' E 008°32'0 0.0
2017-Jun-18 08:29N 53°35' E 008°32'0 0.0
2017-Jun-18 07:59N 53°35' E 008°32'0 0.0
2017-Jun-18 07:29N 53°35' E 008°32'0 0.0
2017-Jun-18 06:59N 53°35' E 008°32'0 0.0
2017-Jun-18 06:29N 53°35' E 008°32'0 0.0
2017-Jun-18 05:59N 53°35' E 008°32'0 0.0
2017-Jun-18 05:29N 53°35' E 008°32'0 0.0
2017-Jun-18 04:59N 53°35' E 008°32'0 0.0
2017-Jun-18 04:29N 53°35' E 008°32'0 0.0
2017-Jun-18 03:56N 53°35' E 008°32'0 0.0
2017-Jun-18 03:29N 53°35' E 008°32'0 0.0
2017-Jun-18 02:59N 53°35' E 008°32'0 0.0
2017-Jun-18 02:29N 53°35' E 008°32'0 0.0
2017-Jun-18 01:59N 53°35' E 008°32'0 0.0
2017-Jun-18 01:29N 53°35' E 008°32'0 0.0
2017-Jun-18 00:59N 53°35' E 008°32'0 0.0
2017-Jun-18 00:29N 53°35' E 008°32'0 0.0
2017-Jun-17 23:59N 53°35' E 008°32'0 0.0
2017-Jun-17 23:29N 53°35' E 008°32'0 0.0
2017-Jun-17 22:59N 53°35' E 008°32'0 0.0
2017-Jun-17 22:29N 53°35' E 008°32'0 0.0
2017-Jun-17 21:59N 53°35' E 008°32'0 0.0
2017-Jun-17 21:29N 53°35' E 008°32'0 0.0
2017-Jun-17 20:59N 53°35' E 008°32'0 0.0
2017-Jun-17 20:29N 53°35' E 008°32'0 0.0
2017-Jun-17 19:59N 53°35' E 008°32'0 0.0
2017-Jun-17 19:29N 53°35' E 008°32'0 0.0
2017-Jun-17 18:59N 53°35' E 008°32'0 0.0
2017-Jun-17 18:29N 53°35' E 008°32'0 0.0
2017-Jun-17 17:56N 53°35' E 008°32'0 0.0
2017-Jun-17 17:29N 53°35' E 008°32'0 0.0
2017-Jun-17 16:56N 53°35' E 008°32'0 0.0
2017-Jun-17 16:29N 53°35' E 008°32'0 0.0
2017-Jun-17 15:59N 53°35' E 008°32'0 0.0
2017-Jun-17 15:29N 53°35' E 008°32'0 0.0
2017-Jun-17 14:59N 53°35' E 008°32'0 0.0
2017-Jun-17 14:29N 53°35' E 008°32'0 0.0
2017-Jun-17 13:29N 53°35' E 008°32'0 0.0
2017-Jun-17 12:59N 53°35' E 008°32'0 0.0
2017-Jun-17 12:29N 53°35' E 008°32'0 0.0
2017-Jun-17 11:59N 53°35' E 008°32'0 0.0
2017-Jun-17 11:29N 53°35' E 008°32'0 0.0
2017-Jun-17 10:59N 53°35' E 008°32'0 0.0
2017-Jun-17 10:29N 53°35' E 008°32'0 0.0
2017-Jun-17 09:59N 53°35' E 008°32'0 0.0
2017-Jun-17 09:29N 53°35' E 008°32'0 0.0
2017-Jun-17 08:59N 53°35' E 008°32'1 2.7
2017-Jun-17 08:30N 53°34' E 008°33'0 0.4
2017-Jun-17 08:00N 53°34' E 008°33'0 0.3
2017-Jun-17 07:30N 53°34' E 008°33'0 0.8
2017-Jun-17 07:00N 53°34' E 008°33'0 0.0
2017-Jun-17 06:30N 53°34' E 008°33'0 0.0
2017-Jun-17 06:00N 53°34' E 008°33'0 0.0
2017-Jun-17 05:30N 53°34' E 008°33'0 0.0
2017-Jun-17 05:00N 53°34' E 008°33'0 0.0
2017-Jun-17 04:30N 53°34' E 008°33'0 0.0
2017-Jun-17 04:00N 53°34' E 008°33'0 0.0
2017-Jun-17 03:30N 53°34' E 008°33'0 0.0
2017-Jun-17 03:00N 53°34' E 008°33'0 0.0
2017-Jun-17 02:30N 53°34' E 008°33'0 0.0
2017-Jun-17 02:00N 53°34' E 008°33'0 0.0
2017-Jun-17 01:30N 53°34' E 008°33'0 0.0
2017-Jun-17 01:00N 53°34' E 008°33'0 0.0
2017-Jun-17 00:30N 53°34' E 008°33'0 0.0
2017-Jun-17 00:00N 53°34' E 008°33'0 0.0
2017-Jun-16 23:30N 53°34' E 008°33'0 0.0
2017-Jun-16 23:00N 53°34' E 008°33'0 0.0
2017-Jun-16 22:30N 53°34' E 008°33'0 0.0
2017-Jun-16 22:00N 53°34' E 008°33'0 0.0
2017-Jun-16 21:30N 53°34' E 008°33'0 0.0
2017-Jun-16 21:00N 53°34' E 008°33'0 0.0
2017-Jun-16 20:30N 53°34' E 008°33'0 0.0
2017-Jun-16 20:00N 53°34' E 008°33'0 0.0
2017-Jun-16 19:30N 53°34' E 008°33'0 0.0
2017-Jun-16 19:00N 53°34' E 008°33'0 0.0
2017-Jun-16 18:30N 53°34' E 008°33'0 0.0
2017-Jun-16 18:00N 53°34' E 008°33'0 0.0
2017-Jun-16 17:30N 53°34' E 008°33'0 0.0
2017-Jun-16 17:00N 53°34' E 008°33'0 0.0
2017-Jun-16 16:30N 53°34' E 008°33'0 0.0
2017-Jun-16 16:00N 53°34' E 008°33'0 0.0
2017-Jun-16 15:30N 53°34' E 008°33'0 0.0
2017-Jun-16 15:00N 53°34' E 008°33'0 0.0
2017-Jun-16 14:30N 53°34' E 008°33'0 0.0
2017-Jun-16 13:30N 53°34' E 008°33'0 0.0
2017-Jun-16 13:00N 53°34' E 008°33'0 0.0
2017-Jun-16 12:30N 53°34' E 008°33'0 0.0
2017-Jun-16 12:00N 53°34' E 008°33'0 0.0
2017-Jun-16 11:30N 53°34' E 008°33'0 0.0
2017-Jun-16 11:00N 53°34' E 008°33'0 0.0
2017-Jun-16 10:30N 53°34' E 008°33'0 0.0
2017-Jun-16 10:00N 53°34' E 008°33'0 0.0
2017-Jun-16 09:30N 53°34' E 008°33'0 0.0
2017-Jun-16 09:00N 53°34' E 008°33'0 0.0
2017-Jun-16 08:30N 53°34' E 008°33'0 0.0
2017-Jun-16 08:00N 53°34' E 008°33'0 0.0
2017-Jun-16 07:30N 53°34' E 008°33'0 0.0
2017-Jun-16 07:00N 53°34' E 008°33'0 0.0
2017-Jun-16 06:30N 53°34' E 008°33'0 0.0
2017-Jun-16 06:00N 53°34' E 008°33'  
Track history (hours):
 
Tides and Currents Weather Stations Pressure Air Temp Water Temp Dewpoint Dewpoint Depression Visibility Wind Speed Wind Dir Waves Ship Positions

Yorktown Express

Owner: Marine Transport Management, Inc., Jacksonville, FL. More information available from US FCC via Universal Licensing System and Coast Guard Vessel Documentation Center.

Last reported at 2017-Jun-26 06:00 UTC. Time now 2017-Jun-26 11:56 UTC.
Position N 38°18' W 049°06'.

Type: Ship. MMSI: 367168650.

Wind from 230 at 18 knots

Barometer 1020.1 mb
Air temperature 24.0 ° C
Visibility: greater than 5.4 NM
Dewpoint 22.5 ° C
Water temperature 25.0 ° C

Date/timePositionNaut miles runAvg speedWind from/ knotsBaromVisibWave heightAir tempDewpointWater temp
2017-Jun-26 06:00N 38°18' W 049°06'11418.9 230 / 181020.1 5.4 24.022.525.0
2017-Jun-26 00:00N 38°54' W 046°48'11519.1 250 / 171021.810.8 22.018.921.0
2017-Jun-25 18:00N 39°36' W 044°30'11619.4 230 / 151022.110.8 23.021.523.0
2017-Jun-25 12:00N 40°12' W 042°06'34219.0 250 / 141021.510.8 21.021.021.0
2017-Jun-24 18:00N 42°12' W 035°00'34118.9 230 / 151023.410.8 20.018.421.0
2017-Jun-24 00:00N 44°12' W 027°42'11318.9 250 / 151026.210.8 19.015.719.0
2017-Jun-23 18:00N 45°00' W 025°18'12019.9 220 / 121024.410.8 20.016.719.0
2017-Jun-23 12:00N 45°36' W 022°36'21017.5 230 / 221022.4 1.1 19.015.717.0
2017-Jun-23 00:00N 46°54' W 017°54'12921.5 230 / 201021.010.8 17.011.518.0
2017-Jun-22 18:00N 47°36' W 014°54'22919.1 200 / 71019.710.8 19.013.819.0
2017-Jun-22 06:00N 48°54' W 009°30'9317.1 300 / 211015.7 15.614.919.0
2017-Jun-22 00:34N 49°32' W 007°20'917.7
2017-Jun-22 00:05N 49°34' W 007°08'117.8
2017-Jun-22 00:00N 49°35' W 007°06'918.2
2017-Jun-21 23:30N 49°38' W 006°52'918.5
2017-Jun-21 23:01N 49°41' W 006°39'918.5
2017-Jun-21 22:31N 49°43' W 006°25'1019.1
2017-Jun-21 22:00N 49°44' W 006°10'1019.2
2017-Jun-21 21:31N 49°45' W 005°56'1019.4
2017-Jun-21 21:00N 49°46' W 005°40'1019.4
2017-Jun-21 20:30N 49°47' W 005°26'1019.3
2017-Jun-21 20:00N 49°48' W 005°11'1019.2
2017-Jun-21 19:31N 49°49' W 004°56'1019.0
2017-Jun-21 19:01N 49°51' W 004°41'918.9
2017-Jun-21 18:31N 49°52' W 004°27'918.5
2017-Jun-21 18:01N 49°52' W 004°12'918.1
2017-Jun-21 17:31N 49°53' W 003°59'917.8
2017-Jun-21 17:01N 49°54' W 003°45'917.5
2017-Jun-21 16:30N 49°56' W 003°31'917.4
2017-Jun-21 16:01N 49°57' W 003°18'917.6
2017-Jun-21 15:31N 49°58' W 003°04'917.6
2017-Jun-21 15:01N 49°60' W 002°51'917.9
2017-Jun-21 14:30N 50°02' W 002°38'1918.8
2017-Jun-21 13:29N 50°10' W 002°10'1020.1
2017-Jun-21 12:58N 50°13' W 001°55'1420.8
2017-Jun-21 12:16N 50°18' W 001°33'521.0
2017-Jun-21 12:01N 50°20' W 001°25'1020.9
2017-Jun-21 11:31N 50°27' W 001°13'1121.1
2017-Jun-21 11:01N 50°33' W 000°60'714.7
2017-Jun-21 10:30N 50°40' W 000°56'713.9
2017-Jun-21 10:00N 50°44' W 001°05'714.8
2017-Jun-21 09:30N 50°46' W 001°16'4 8.0
2017-Jun-21 09:00N 50°50' W 001°19'3 6.5
2017-Jun-21 08:30N 50°52' W 001°23'3 6.3
2017-Jun-21 08:00N 50°54' W 001°27'1 1.7
2017-Jun-21 07:29N 50°55' W 001°28'0 0.0
2017-Jun-21 06:56N 50°55' W 001°28'0 0.0
2017-Jun-21 06:26N 50°55' W 001°28'0 0.0
2017-Jun-21 05:59N 50°55' W 001°28'0 0.0
2017-Jun-21 05:29N 50°55' W 001°28'0 0.0
2017-Jun-21 04:56N 50°55' W 001°28'0 0.0
2017-Jun-21 04:30N 50°55' W 001°28'0 0.0
2017-Jun-21 03:53N 50°55' W 001°28'0 0.0
2017-Jun-21 03:26N 50°55' W 001°28'0 0.0
2017-Jun-21 01:50N 50°55' W 001°28'0 0.0
2017-Jun-21 01:30N 50°55' W 001°28'0 0.0
2017-Jun-21 00:53N 50°55' W 001°28'0 0.0
2017-Jun-21 00:20N 50°55' W 001°28'0 0.0
2017-Jun-20 23:53N 50°55' W 001°28'0 0.0
2017-Jun-20 23:26N 50°55' W 001°28'0 0.2
2017-Jun-20 22:59N 50°55' W 001°28'1 2.1
2017-Jun-20 22:30N 50°54' W 001°26'3 6.2
2017-Jun-20 22:00N 50°52' W 001°23'510.0
2017-Jun-20 21:30N 50°48' W 001°17'5 9.6
2017-Jun-20 21:01N 50°46' W 001°11'815.1
2017-Jun-20 20:31N 50°43' W 000°60'4 8.7
2017-Jun-20 20:00N 50°39' W 000°59'4 8.3
2017-Jun-20 19:31N 50°35' W 001°03'1 1.0
2017-Jun-20 18:49N 50°35' W 001°03'0 0.3
2017-Jun-20 18:28N 50°34' W 001°03'0 0.1
2017-Jun-20 17:58N 50°34' W 001°03'0 0.0
2017-Jun-20 17:28N 50°34' W 001°03'0 0.0
2017-Jun-20 16:58N 50°34' W 001°03'0 0.0
2017-Jun-20 16:28N 50°34' W 001°03'0 0.0
2017-Jun-20 15:58N 50°34' W 001°03'0 0.0
2017-Jun-20 15:28N 50°34' W 001°03'0 0.1
2017-Jun-20 15:00N 50°34' W 001°03'4 4.2
2017-Jun-20 14:00N 50°34' W 000°56'4 8.9
2017-Jun-20 13:30N 50°34' W 000°49'714.3
2017-Jun-20 13:00N 50°34' W 000°38'918.7
2017-Jun-20 12:30N 50°33' W 000°23'714.7
2017-Jun-20 12:00N 50°32' W 000°12'1019.6
2017-Jun-20 11:31N 50°32' E 000°03'1019.8
2017-Jun-20 11:01N 50°34' E 000°19'1019.6
2017-Jun-20 10:31N 50°37' E 000°33'919.0
2017-Jun-20 10:01N 50°41' E 000°47'918.4
2017-Jun-20 09:31N 50°46' E 000°59'917.7
2017-Jun-20 09:00N 50°51' E 001°10'817.0
2017-Jun-20 08:30N 50°57' E 001°21'816.5
2017-Jun-20 08:00N 51°03' E 001°30'816.6
2017-Jun-20 07:31N 51°09' E 001°39'917.1
2017-Jun-20 07:01N 51°15' E 001°48'918.0
2017-Jun-20 06:31N 51°23' E 001°56'714.8
2017-Jun-20 06:00N 51°23' E 002°08'917.5
2017-Jun-20 05:31N 51°21' E 002°21'918.9
2017-Jun-20 05:00N 51°23' E 002°36'713.8
2017-Jun-20 04:30N 51°24' E 002°47'917.3
2017-Jun-20 04:01N 51°25' E 003°01'1019.4
2017-Jun-20 03:31N 51°25' E 003°16'918.2
2017-Jun-20 03:01N 51°25' E 003°31'611.9
2017-Jun-20 02:30N 51°26' E 003°40'714.2
2017-Jun-20 02:01N 51°21' E 003°48'714.5
2017-Jun-20 01:31N 51°25' E 003°58'5 9.9
2017-Jun-20 01:01N 51°22' E 004°04'611.2
2017-Jun-20 00:31N 51°22' E 004°13'3 5.2
2017-Jun-20 00:01N 51°20' E 004°17'0 0.0
2017-Jun-19 23:30N 51°20' E 004°17'0 0.0
2017-Jun-19 23:00N 51°20' E 004°17'0 0.0
2017-Jun-19 22:31N 51°20' E 004°17'0 0.0
2017-Jun-19 22:01N 51°20' E 004°17'0 0.0
2017-Jun-19 21:31N 51°20' E 004°17'0 0.0
2017-Jun-19 21:00N 51°20' E 004°17'0 0.0
2017-Jun-19 20:29N 51°20' E 004°17'0 0.0
2017-Jun-19 20:00N 51°20' E 004°17'0 0.0
2017-Jun-19 19:30N 51°20' E 004°17'0 0.0
2017-Jun-19 19:01N 51°20' E 004°17'0 0.0
2017-Jun-19 18:30N 51°20' E 004°17'0 0.0
2017-Jun-19 18:01N 51°20' E 004°17'0 0.0
2017-Jun-19 17:30N 51°20' E 004°17'0 0.0
2017-Jun-19 17:00N 51°20' E 004°17'0 0.0
2017-Jun-19 16:29N 51°20' E 004°17'0 0.0
2017-Jun-19 16:01N 51°20' E 004°17'0 0.0
2017-Jun-19 15:29N 51°20' E 004°17'0 0.0
2017-Jun-19 15:01N 51°20' E 004°17'0 0.0
2017-Jun-19 14:31N 51°20' E 004°17'0 0.0
2017-Jun-19 13:30N 51°20' E 004°17'0 0.0
2017-Jun-19 13:00N 51°20' E 004°17'0 0.0
2017-Jun-19 12:31N 51°20' E 004°17'0 0.0
2017-Jun-19 12:00N 51°20' E 004°17'0 0.0
2017-Jun-19 11:31N 51°20' E 004°17'0 0.0
2017-Jun-19 11:01N 51°20' E 004°17'0 0.0
2017-Jun-19 10:31N 51°20' E 004°17'0 0.0
2017-Jun-19 10:01N 51°20' E 004°17'0 0.0
2017-Jun-19 09:30N 51°20' E 004°17'2 4.7
2017-Jun-19 09:00N 51°21' E 004°14'3 6.9
2017-Jun-19 08:31N 51°22' E 004°08'612.8
2017-Jun-19 08:00N 51°26' E 004°00'714.2
2017-Jun-19 07:30N 51°21' E 003°52'714.0
2017-Jun-19 07:00N 51°24' E 003°43'611.1
2017-Jun-19 06:30N 51°26' E 003°34'917.3
2017-Jun-19 06:00N 51°24' E 003°20'1019.8
2017-Jun-19 05:30N 51°24' E 003°04'612.7
2017-Jun-19 05:00N 51°31' E 003°05'1018.9
2017-Jun-19 04:30N 51°39' E 003°12'612.2
2017-Jun-19 03:59N 51°45' E 003°14'4 9.1
2017-Jun-19 03:30N 51°49' E 003°16'5 9.7
2017-Jun-19 03:00N 51°54' E 003°18'510.2
2017-Jun-19 02:30N 51°59' E 003°20'611.7
2017-Jun-19 02:00N 52°05' E 003°21'714.7
2017-Jun-19 01:30N 52°12' E 003°24'715.0
2017-Jun-19 01:00N 52°20' E 003°25'714.6
2017-Jun-19 00:30N 52°27' E 003°28'714.3
2017-Jun-19 00:00N 52°34' E 003°30'713.5
2017-Jun-18 23:30N 52°40' E 003°34'713.9
2017-Jun-18 23:00N 52°45' E 003°41'713.8
2017-Jun-18 22:30N 52°51' E 003°49'713.7
2017-Jun-18 22:00N 52°56' E 003°56'713.8
2017-Jun-18 21:30N 53°00' E 004°05'714.3
2017-Jun-18 21:00N 53°05' E 004°14'714.8
2017-Jun-18 20:30N 53°09' E 004°24'714.9
2017-Jun-18 20:00N 53°16' E 004°29'815.7
2017-Jun-18 19:31N 53°23' E 004°34'918.5
2017-Jun-18 19:00N 53°29' E 004°45'1019.9
2017-Jun-18 18:30N 53°33' E 005°01'1019.8
2017-Jun-18 18:00N 53°36' E 005°17'1019.4
2017-Jun-18 17:30N 53°39' E 005°32'1019.2
2017-Jun-18 17:00N 53°42' E 005°48'1019.0
2017-Jun-18 16:30N 53°45' E 006°03'1019.2
2017-Jun-18 16:00N 53°49' E 006°18'1518.7
2017-Jun-18 15:13N 53°53' E 006°42'3117.6
2017-Jun-18 13:27N 53°60' E 007°33'716.3
2017-Jun-18 13:00N 53°56' E 007°44'713.0
2017-Jun-18 12:30N 53°52' E 007°53'612.7
2017-Jun-18 12:00N 53°50' E 008°03'714.1
2017-Jun-18 11:30N 53°46' E 008°12'815.4
2017-Jun-18 11:00N 53°41' E 008°22'713.9
2017-Jun-18 10:30N 53°36' E 008°31'1 2.3
2017-Jun-18 10:00N 53°35' E 008°32'0 0.0
2017-Jun-18 09:30N 53°35' E 008°32'0 0.0
2017-Jun-18 08:59N 53°35' E 008°32'0 0.0
2017-Jun-18 08:29N 53°35' E 008°32'0 0.0
2017-Jun-18 07:59N 53°35' E 008°32'0 0.0
2017-Jun-18 07:29N 53°35' E 008°32'0 0.0
2017-Jun-18 06:59N 53°35' E 008°32'0 0.0
2017-Jun-18 06:29N 53°35' E 008°32'0 0.0
2017-Jun-18 05:59N 53°35' E 008°32'0 0.0
2017-Jun-18 05:29N 53°35' E 008°32'0 0.0
2017-Jun-18 04:59N 53°35' E 008°32'0 0.0
2017-Jun-18 04:29N 53°35' E 008°32'0 0.0
2017-Jun-18 03:56N 53°35' E 008°32'0 0.0
2017-Jun-18 03:29N 53°35' E 008°32'0 0.0
2017-Jun-18 02:59N 53°35' E 008°32'0 0.0
2017-Jun-18 02:29N 53°35' E 008°32'0 0.0
2017-Jun-18 01:59N 53°35' E 008°32'0 0.0
2017-Jun-18 01:29N 53°35' E 008°32'0 0.0
2017-Jun-18 00:59N 53°35' E 008°32'0 0.0
2017-Jun-18 00:29N 53°35' E 008°32'0 0.0
2017-Jun-17 23:59N 53°35' E 008°32'0 0.0
2017-Jun-17 23:29N 53°35' E 008°32'0 0.0
2017-Jun-17 22:59N 53°35' E 008°32'0 0.0
2017-Jun-17 22:29N 53°35' E 008°32'0 0.0
2017-Jun-17 21:59N 53°35' E 008°32'0 0.0
2017-Jun-17 21:29N 53°35' E 008°32'0 0.0
2017-Jun-17 20:59N 53°35' E 008°32'0 0.0
2017-Jun-17 20:29N 53°35' E 008°32'0 0.0
2017-Jun-17 19:59N 53°35' E 008°32'0 0.0
2017-Jun-17 19:29N 53°35' E 008°32'0 0.0
2017-Jun-17 18:59N 53°35' E 008°32'0 0.0
2017-Jun-17 18:29N 53°35' E 008°32'0 0.0
2017-Jun-17 17:56N 53°35' E 008°32'0 0.0
2017-Jun-17 17:29N 53°35' E 008°32'0 0.0
2017-Jun-17 16:56N 53°35' E 008°32'0 0.0
2017-Jun-17 16:29N 53°35' E 008°32'0 0.0
2017-Jun-17 15:59N 53°35' E 008°32'0 0.0
2017-Jun-17 15:29N 53°35' E 008°32'0 0.0
2017-Jun-17 14:59N 53°35' E 008°32'0 0.0
2017-Jun-17 14:29N 53°35' E 008°32'0 0.0
2017-Jun-17 13:29N 53°35' E 008°32'0 0.0
2017-Jun-17 12:59N 53°35' E 008°32'0 0.0
2017-Jun-17 12:29N 53°35' E 008°32'0 0.0
2017-Jun-17 11:59N 53°35' E 008°32'0 0.0
2017-Jun-17 11:29N 53°35' E 008°32'0 0.0
2017-Jun-17 10:59N 53°35' E 008°32'0 0.0
2017-Jun-17 10:29N 53°35' E 008°32'0 0.0
2017-Jun-17 09:59N 53°35' E 008°32'0 0.0
2017-Jun-17 09:29N 53°35' E 008°32'0 0.0
2017-Jun-17 08:59N 53°35' E 008°32'1 2.7
2017-Jun-17 08:30N 53°34' E 008°33'0 0.4
2017-Jun-17 08:00N 53°34' E 008°33'0 0.3
2017-Jun-17 07:30N 53°34' E 008°33'0 0.8
2017-Jun-17 07:00N 53°34' E 008°33'0 0.0
2017-Jun-17 06:30N 53°34' E 008°33'0 0.0
2017-Jun-17 06:00N 53°34' E 008°33'0 0.0
2017-Jun-17 05:30N 53°34' E 008°33'0 0.0
2017-Jun-17 05:00N 53°34' E 008°33'0 0.0
2017-Jun-17 04:30N 53°34' E 008°33'0 0.0
2017-Jun-17 04:00N 53°34' E 008°33'0 0.0
2017-Jun-17 03:30N 53°34' E 008°33'0 0.0
2017-Jun-17 03:00N 53°34' E 008°33'0 0.0
2017-Jun-17 02:30N 53°34' E 008°33'0 0.0
2017-Jun-17 02:00N 53°34' E 008°33'0 0.0
2017-Jun-17 01:30N 53°34' E 008°33'0 0.0
2017-Jun-17 01:00N 53°34' E 008°33'0 0.0
2017-Jun-17 00:30N 53°34' E 008°33'0 0.0
2017-Jun-17 00:00N 53°34' E 008°33'0 0.0
2017-Jun-16 23:30N 53°34' E 008°33'0 0.0
2017-Jun-16 23:00N 53°34' E 008°33'0 0.0
2017-Jun-16 22:30N 53°34' E 008°33'0 0.0
2017-Jun-16 22:00N 53°34' E 008°33'0 0.0
2017-Jun-16 21:30N 53°34' E 008°33'0 0.0
2017-Jun-16 21:00N 53°34' E 008°33'0 0.0
2017-Jun-16 20:30N 53°34' E 008°33'0 0.0
2017-Jun-16 20:00N 53°34' E 008°33'0 0.0
2017-Jun-16 19:30N 53°34' E 008°33'0 0.0
2017-Jun-16 19:00N 53°34' E 008°33'0 0.0
2017-Jun-16 18:30N 53°34' E 008°33'0 0.0
2017-Jun-16 18:00N 53°34' E 008°33'0 0.0
2017-Jun-16 17:30N 53°34' E 008°33'0 0.0
2017-Jun-16 17:00N 53°34' E 008°33'0 0.0
2017-Jun-16 16:30N 53°34' E 008°33'0 0.0
2017-Jun-16 16:00N 53°34' E 008°33'0 0.0
2017-Jun-16 15:30N 53°34' E 008°33'0 0.0
2017-Jun-16 15:00N 53°34' E 008°33'0 0.0
2017-Jun-16 14:30N 53°34' E 008°33'0 0.0
2017-Jun-16 13:30N 53°34' E 008°33'0 0.0
2017-Jun-16 13:00N 53°34' E 008°33'0 0.0
2017-Jun-16 12:30N 53°34' E 008°33'0 0.0
2017-Jun-16 12:00N 53°34' E 008°33'0 0.0
2017-Jun-16 11:30N 53°34' E 008°33'0 0.0
2017-Jun-16 11:00N 53°34' E 008°33'0 0.0
2017-Jun-16 10:30N 53°34' E 008°33'0 0.0
2017-Jun-16 10:00N 53°34' E 008°33'0 0.0
2017-Jun-16 09:30N 53°34' E 008°33'0 0.0
2017-Jun-16 09:00N 53°34' E 008°33'0 0.0
2017-Jun-16 08:30N 53°34' E 008°33'0 0.0
2017-Jun-16 08:00N 53°34' E 008°33'0 0.0
2017-Jun-16 07:30N 53°34' E 008°33'0 0.0
2017-Jun-16 07:00N 53°34' E 008°33'0 0.0
2017-Jun-16 06:30N 53°34' E 008°33'0 0.0
2017-Jun-16 06:00N 53°34' E 008°33'  

Dump ship's entire track history